createdAt,value
2024-04-22T00:01:34.144Z,2.79
2024-04-22T00:04:01.904Z,2.79
2024-04-22T00:06:29.603Z,2.79
2024-04-22T00:08:57.831Z,2.78
2024-04-22T00:11:25.345Z,2.76
2024-04-22T00:13:52.790Z,2.75
2024-04-22T00:16:20.254Z,2.74
2024-04-22T00:18:47.774Z,2.73
2024-04-22T00:21:15.639Z,2.70
2024-04-22T00:23:43.116Z,2.68
2024-04-22T00:26:10.553Z,2.67
2024-04-22T00:28:38.744Z,2.65
2024-04-22T00:31:06.369Z,2.63
2024-04-22T00:33:33.915Z,2.62
2024-04-22T00:36:01.921Z,2.62
2024-04-22T00:38:30.789Z,2.61
2024-04-22T00:40:59.216Z,2.60
2024-04-22T00:43:26.731Z,2.58
2024-04-22T00:45:54.343Z,2.58
2024-04-22T00:48:23.889Z,2.57
2024-04-22T00:50:53.880Z,2.55
2024-04-22T00:53:21.821Z,2.53
2024-04-22T00:55:50.520Z,2.52
2024-04-22T00:58:19.435Z,2.49
2024-04-22T01:00:48.404Z,2.48
2024-04-22T01:03:16.802Z,2.47
2024-04-22T01:05:44.342Z,2.46
2024-04-22T01:08:11.798Z,2.45
2024-04-22T01:10:39.335Z,2.45
2024-04-22T01:13:06.976Z,2.45
2024-04-22T01:15:34.586Z,2.45
2024-04-22T01:18:02.136Z,2.46
2024-04-22T01:20:29.652Z,2.46
2024-04-22T01:22:57.101Z,2.46
2024-04-22T01:25:27.177Z,2.45
2024-04-22T01:27:54.694Z,2.45
2024-04-22T01:30:22.139Z,2.44
2024-04-22T01:32:49.658Z,2.43
2024-04-22T01:35:17.444Z,2.42
2024-04-22T01:37:45.006Z,2.40
2024-04-22T01:40:13.287Z,2.40
2024-04-22T01:42:40.742Z,2.39
2024-04-22T01:45:08.412Z,2.39
2024-04-22T01:47:35.892Z,2.39
2024-04-22T01:50:03.569Z,2.37
2024-04-22T01:52:31.078Z,2.36
2024-04-22T01:54:58.609Z,2.36
2024-04-22T01:57:26.029Z,2.35
2024-04-22T01:59:53.510Z,2.34
2024-04-22T02:02:20.975Z,2.34
2024-04-22T02:04:48.459Z,2.31
2024-04-22T02:07:15.905Z,2.30
2024-04-22T02:09:43.322Z,2.29
2024-04-22T02:12:10.774Z,2.28
2024-04-22T02:14:40.194Z,2.26
2024-04-22T02:17:07.664Z,2.25
2024-04-22T02:19:35.307Z,2.25
2024-04-22T02:22:02.811Z,2.24
2024-04-22T02:24:30.345Z,2.23
2024-04-22T02:26:57.771Z,2.23
2024-04-22T02:29:25.201Z,2.22
2024-04-22T02:31:52.680Z,2.21
2024-04-22T02:34:20.089Z,2.21
2024-04-22T02:36:47.484Z,2.20
2024-04-22T02:39:14.931Z,2.19
2024-04-22T02:41:42.556Z,2.18
2024-04-22T02:44:10.003Z,2.17
2024-04-22T02:46:37.438Z,2.16
2024-04-22T02:49:04.864Z,2.15
2024-04-22T02:51:32.372Z,2.14
2024-04-22T02:53:59.816Z,2.13
2024-04-22T02:56:27.314Z,2.13
2024-04-22T02:58:56.913Z,2.12
2024-04-22T03:01:24.920Z,2.12
2024-04-22T03:03:52.491Z,2.11
2024-04-22T03:06:20.009Z,2.10
2024-04-22T03:08:50.885Z,2.09
2024-04-22T03:11:18.358Z,2.09
2024-04-22T03:13:47.870Z,2.08
2024-04-22T03:16:16.964Z,2.07
2024-04-22T03:18:47.560Z,2.06
2024-04-22T03:21:15.137Z,2.06
2024-04-22T03:23:42.569Z,2.05
2024-04-22T03:26:11.522Z,2.04
2024-04-22T03:28:39.216Z,2.02
2024-04-22T03:31:07.263Z,2.01
2024-04-22T03:33:34.898Z,1.99
2024-04-22T03:36:03.572Z,1.97
2024-04-22T03:38:31.086Z,1.96
2024-04-22T03:40:58.496Z,1.94
2024-04-22T03:43:25.933Z,1.92
2024-04-22T03:46:12.290Z,1.91
2024-04-22T03:48:58.320Z,1.89
2024-04-22T03:51:26.086Z,1.88
2024-04-22T03:53:53.554Z,1.88
2024-04-22T03:56:21.041Z,1.87
2024-04-22T03:58:48.521Z,1.87
2024-04-22T04:01:17.239Z,1.88
2024-04-22T04:03:44.871Z,1.89
2024-04-22T04:06:12.429Z,1.92
2024-04-22T04:08:39.925Z,1.93
2024-04-22T04:11:14.169Z,1.94
2024-04-22T04:13:45.640Z,1.97
2024-04-22T04:16:13.225Z,1.99
2024-04-22T04:18:42.565Z,2.02
2024-04-22T04:21:10.070Z,2.04
2024-04-22T04:23:37.557Z,2.07
2024-04-22T04:26:05.089Z,2.08
2024-04-22T04:28:32.537Z,2.11
2024-04-22T04:31:01.234Z,2.12
2024-04-22T04:33:28.936Z,2.13
2024-04-22T04:36:03.981Z,2.17
2024-04-22T04:38:32.562Z,2.19
2024-04-22T04:41:00.930Z,2.21
2024-04-22T04:43:31.223Z,2.23
2024-04-22T04:45:59.114Z,2.24
2024-04-22T04:48:27.496Z,2.25
2024-04-22T04:50:55.258Z,2.25
2024-04-22T04:53:22.942Z,2.25
2024-04-22T04:55:50.566Z,2.26
2024-04-22T04:58:18.968Z,2.27
2024-04-22T05:00:47.153Z,2.29
2024-04-22T05:03:15.391Z,2.32
2024-04-22T05:05:42.910Z,2.34
2024-04-22T05:08:10.379Z,2.35
2024-04-22T05:10:37.987Z,2.37
2024-04-22T05:13:05.602Z,2.40
2024-04-22T05:15:33.096Z,2.43
2024-04-22T05:18:00.640Z,2.46
2024-04-22T05:20:31.026Z,2.46
2024-04-22T05:22:58.606Z,2.48
2024-04-22T05:25:26.326Z,2.49
2024-04-22T05:27:54.122Z,2.51
2024-04-22T05:30:22.559Z,2.53
2024-04-22T05:32:50.170Z,2.54
2024-04-22T05:35:36.564Z,2.55
2024-04-22T05:38:04.215Z,2.54
2024-04-22T05:40:31.709Z,2.53
2024-04-22T05:42:59.181Z,2.54
2024-04-22T05:45:26.944Z,2.55
2024-04-22T05:47:54.577Z,2.57
2024-04-22T05:50:22.273Z,2.61
2024-04-22T05:52:49.722Z,2.66
2024-04-22T05:55:17.241Z,2.71
2024-04-22T05:57:47.208Z,2.75
2024-04-22T06:00:16.207Z,2.79
2024-04-22T06:02:43.669Z,2.82
2024-04-22T06:05:11.211Z,2.85
2024-04-22T06:07:39.020Z,2.88
2024-04-22T06:10:06.957Z,2.92
2024-04-22T06:12:34.358Z,2.94
2024-04-22T06:15:01.806Z,2.96
2024-04-22T06:17:29.317Z,2.96
2024-04-22T06:19:56.777Z,2.97
2024-04-22T06:22:24.326Z,2.98
2024-04-22T06:24:52.824Z,2.99
2024-04-22T06:27:20.296Z,3.01
2024-04-22T06:29:48.956Z,3.05
2024-04-22T06:32:16.665Z,3.11
2024-04-22T06:34:44.308Z,3.19
2024-04-22T06:37:11.930Z,3.27
2024-04-22T06:39:39.586Z,3.34
2024-04-22T06:42:07.133Z,3.42
2024-04-22T06:44:34.571Z,3.52
2024-04-22T06:47:03.549Z,3.60
2024-04-22T06:49:31.168Z,3.65
2024-04-22T06:51:58.632Z,3.70
2024-04-22T06:54:26.070Z,3.77
2024-04-22T06:56:53.535Z,3.86
2024-04-22T06:59:20.999Z,3.93
2024-04-22T07:01:48.463Z,3.97
2024-04-22T07:04:16.667Z,3.99
2024-04-22T07:06:44.586Z,4.00
2024-04-22T07:09:14.017Z,4.02
2024-04-22T07:11:41.604Z,4.07
2024-04-22T07:14:12.761Z,4.13
2024-04-22T07:16:41.569Z,4.19
2024-04-22T07:19:09.254Z,4.24
2024-04-22T07:21:36.718Z,4.26
2024-04-22T07:24:04.380Z,4.30
2024-04-22T07:26:31.837Z,4.33
2024-04-22T07:28:59.566Z,4.40
2024-04-22T07:31:27.330Z,4.48
2024-04-22T07:33:55.125Z,4.56
2024-04-22T07:36:29.981Z,4.64
2024-04-22T07:39:01.392Z,4.69
2024-04-22T07:41:29.491Z,4.74
2024-04-22T07:43:57.075Z,4.82
2024-04-22T07:46:25.532Z,4.91
2024-04-22T07:48:53.001Z,5.01
2024-04-22T07:51:20.427Z,5.13
2024-04-22T07:53:48.177Z,5.22
2024-04-22T07:56:18.238Z,5.36
2024-04-22T07:58:46.186Z,5.48
2024-04-22T08:01:14.705Z,5.59
2024-04-22T08:03:43.019Z,5.72
2024-04-22T08:06:17.536Z,5.88
2024-04-22T08:08:45.238Z,6.01
2024-04-22T08:11:13.218Z,6.08
2024-04-22T08:13:40.852Z,6.16
2024-04-22T08:16:08.350Z,6.25
2024-04-22T08:18:35.876Z,6.34
2024-04-22T08:21:03.555Z,6.36
2024-04-22T08:23:32.003Z,6.39
2024-04-22T08:25:59.605Z,6.46
2024-04-22T08:28:27.353Z,6.50
2024-04-22T08:31:06.251Z,6.48
2024-04-22T08:33:34.096Z,6.45
2024-04-22T08:36:02.107Z,6.45
2024-04-22T08:38:29.948Z,6.44
2024-04-22T08:40:57.853Z,6.43
2024-04-22T08:43:25.507Z,6.40
2024-04-22T08:45:53.038Z,6.33
2024-04-22T08:48:20.663Z,6.28
2024-04-22T08:50:51.531Z,6.26
2024-04-22T08:53:20.204Z,6.29
2024-04-22T08:55:48.018Z,6.41
2024-04-22T08:58:16.127Z,6.52
2024-04-22T09:00:43.958Z,6.58
2024-04-22T09:03:11.533Z,6.58
2024-04-22T09:05:40.169Z,6.49
2024-04-22T09:08:10.000Z,6.37
2024-04-22T09:11:11.648Z,6.26
2024-04-22T09:13:29.040Z,6.13
2024-04-22T09:15:57.249Z,6.03
2024-04-22T09:18:29.960Z,5.95
2024-04-22T09:21:07.252Z,5.84
2024-04-22T09:23:35.943Z,5.76
2024-04-22T09:26:03.995Z,5.71
2024-04-22T09:28:35.581Z,5.66
2024-04-22T09:31:04.831Z,5.61
2024-04-22T09:33:36.753Z,5.58
2024-04-22T09:36:05.787Z,5.57
2024-04-22T09:38:43.752Z,5.60
2024-04-22T09:41:16.716Z,5.60
2024-04-22T09:43:49.952Z,5.57
2024-04-22T09:46:21.215Z,5.55
2024-04-22T09:48:49.279Z,5.55
2024-04-22T09:51:18.955Z,5.58
2024-04-22T09:53:47.132Z,5.61
2024-04-22T09:56:21.816Z,5.61
2024-04-22T09:58:49.625Z,5.60
2024-04-22T10:01:17.480Z,5.53
2024-04-22T10:03:45.318Z,5.46
2024-04-22T10:06:14.200Z,5.40
2024-04-22T10:08:41.827Z,5.38
2024-04-22T10:11:12.092Z,5.37
2024-04-22T10:13:40.201Z,5.37
2024-04-22T10:16:13.904Z,5.36
2024-04-22T10:18:48.900Z,5.38
2024-04-22T10:21:16.740Z,5.40
2024-04-22T10:23:44.738Z,5.43
2024-04-22T10:26:19.708Z,5.46
2024-04-22T10:28:48.121Z,5.47
2024-04-22T10:31:23.067Z,5.44
2024-04-22T10:33:51.250Z,5.41
2024-04-22T10:36:19.006Z,5.40
2024-04-22T10:38:46.443Z,5.38
2024-04-22T10:41:14.933Z,5.35
2024-04-22T10:43:45.306Z,5.34
2024-04-22T10:46:13.024Z,5.32
2024-04-22T10:48:41.156Z,5.30
2024-04-22T10:51:11.140Z,5.24
2024-04-22T10:53:38.627Z,5.18
2024-04-22T10:56:06.983Z,5.15
2024-04-22T10:58:35.274Z,5.12
2024-04-22T11:01:04.079Z,5.10
2024-04-22T11:03:31.823Z,5.11
2024-04-22T11:06:00.670Z,5.13
2024-04-22T11:08:29.437Z,5.14
2024-04-22T11:10:58.346Z,5.12
2024-04-22T11:13:26.169Z,5.15
2024-04-22T11:15:53.689Z,5.16
2024-04-22T11:18:22.086Z,5.19
2024-04-22T11:20:49.785Z,5.23
2024-04-22T11:23:17.269Z,5.26
2024-04-22T11:25:44.820Z,5.26
2024-04-22T11:28:12.459Z,5.24
2024-04-22T11:30:42.403Z,5.25
2024-04-22T11:33:11.945Z,5.25
2024-04-22T11:35:39.518Z,5.26
2024-04-22T11:38:28.867Z,5.29
2024-04-22T11:40:56.379Z,5.32
2024-04-22T11:43:24.001Z,5.34
2024-04-22T11:45:53.332Z,5.37
2024-04-22T11:48:20.875Z,5.39
2024-04-22T11:50:48.680Z,5.40
2024-04-22T11:53:23.546Z,5.45
2024-04-22T11:55:54.922Z,5.51
2024-04-22T11:58:25.598Z,5.57
2024-04-22T12:00:53.162Z,5.62
2024-04-22T12:03:20.699Z,5.66
2024-04-22T12:05:48.341Z,5.71
2024-04-22T12:08:15.904Z,5.74
2024-04-22T12:10:43.460Z,5.77
2024-04-22T12:13:10.925Z,5.81
2024-04-22T12:15:39.065Z,5.87
2024-04-22T12:18:06.678Z,5.95
2024-04-22T12:20:34.158Z,6.00
2024-04-22T12:23:01.598Z,6.07
2024-04-22T12:25:29.117Z,6.12
2024-04-22T12:28:02.187Z,6.19
2024-04-22T12:30:33.430Z,6.26
2024-04-22T12:33:00.990Z,6.29
2024-04-22T12:35:28.463Z,6.33
2024-04-22T12:37:55.990Z,6.36
2024-04-22T12:40:23.671Z,6.37
2024-04-22T12:42:51.534Z,6.41
2024-04-22T12:45:18.975Z,6.46
2024-04-22T12:48:05.297Z,6.50
2024-04-22T12:50:46.132Z,6.51
2024-04-22T12:53:13.774Z,6.52
2024-04-22T12:55:41.600Z,6.52
2024-04-22T12:58:09.091Z,6.54
2024-04-22T13:00:36.986Z,6.57
2024-04-22T13:03:05.036Z,6.59
2024-04-22T13:05:32.759Z,6.61
2024-04-22T13:08:00.474Z,6.64
2024-04-22T13:10:28.192Z,6.65
2024-04-22T13:12:55.754Z,6.62
2024-04-22T13:15:23.218Z,6.59
2024-04-22T13:17:51.457Z,6.56
2024-04-22T13:20:19.001Z,6.55
2024-04-22T13:22:46.836Z,6.53
2024-04-22T13:25:14.608Z,6.49
2024-04-22T13:27:42.807Z,6.47
2024-04-22T13:30:13.600Z,6.43
2024-04-22T13:32:44.410Z,6.34
2024-04-22T13:35:11.987Z,6.27
2024-04-22T13:37:42.218Z,6.19
2024-04-22T13:40:10.961Z,6.10
2024-04-22T13:42:42.528Z,5.99
2024-04-22T13:45:13.212Z,5.88
2024-04-22T13:47:40.905Z,5.80
2024-04-22T13:50:08.603Z,5.74
2024-04-22T13:52:37.293Z,5.68
2024-04-22T13:55:06.741Z,5.63
2024-04-22T13:57:38.651Z,5.58
2024-04-22T14:00:09.581Z,5.56
2024-04-22T14:02:38.813Z,5.56
2024-04-22T14:05:06.445Z,5.56
2024-04-22T14:07:34.003Z,5.58
2024-04-22T14:10:04.914Z,5.61
2024-04-22T14:12:34.673Z,5.63
2024-04-22T14:15:02.152Z,5.65
2024-04-22T14:17:30.410Z,5.68
2024-04-22T14:19:58.164Z,5.70
2024-04-22T14:22:25.981Z,5.71
2024-04-22T14:24:53.471Z,5.71
2024-04-22T14:27:20.894Z,5.71
2024-04-22T14:29:48.379Z,5.73
2024-04-22T14:32:15.886Z,5.73
2024-04-22T14:34:43.698Z,5.71
2024-04-22T14:37:11.896Z,5.71
2024-04-22T14:39:39.868Z,5.73
2024-04-22T14:42:07.381Z,5.74
2024-04-22T14:44:39.122Z,5.75
2024-04-22T14:47:08.538Z,5.72
2024-04-22T14:49:36.074Z,5.69
2024-04-22T14:52:04.196Z,5.68
2024-04-22T14:54:31.675Z,5.65
2024-04-22T14:56:59.188Z,5.61
2024-04-22T14:59:26.674Z,5.59
2024-04-22T15:01:54.464Z,5.56
2024-04-22T15:04:22.304Z,5.55
2024-04-22T15:06:51.394Z,5.53
2024-04-22T15:09:18.936Z,5.52
2024-04-22T15:11:46.651Z,5.51
2024-04-22T15:14:14.279Z,5.51
2024-04-22T15:16:41.828Z,5.53
2024-04-22T15:19:09.337Z,5.57
2024-04-22T15:21:36.785Z,5.62
2024-04-22T15:24:04.383Z,5.63
2024-04-22T15:26:31.849Z,5.65
2024-04-22T15:28:59.363Z,5.68
2024-04-22T15:31:27.017Z,5.70
2024-04-22T15:33:54.671Z,5.71
2024-04-22T15:36:23.022Z,5.73
2024-04-22T15:38:50.530Z,5.73
2024-04-22T15:41:17.997Z,5.73
2024-04-22T15:43:45.517Z,5.73
2024-04-22T15:46:13.110Z,5.74
2024-04-22T15:48:40.663Z,5.71
2024-04-22T15:51:08.527Z,5.68
2024-04-22T15:53:36.013Z,5.66
2024-04-22T15:56:04.991Z,5.64
2024-04-22T15:58:32.524Z,5.61
2024-04-22T16:01:00.030Z,5.58
2024-04-22T16:03:31.762Z,5.56
2024-04-22T16:05:59.510Z,5.57
2024-04-22T16:08:27.723Z,5.56
2024-04-22T16:10:55.265Z,5.57
2024-04-22T16:13:22.963Z,5.56
2024-04-22T16:15:50.568Z,5.55
2024-04-22T16:18:18.536Z,5.54
2024-04-22T16:20:53.519Z,5.53
2024-04-22T16:23:31.408Z,5.51
2024-04-22T16:26:02.111Z,5.48
2024-04-22T16:28:29.599Z,5.45
2024-04-22T16:30:57.104Z,5.43
2024-04-22T16:33:27.106Z,5.42
2024-04-22T16:35:54.599Z,5.39
2024-04-22T16:38:22.071Z,5.37
2024-04-22T16:40:49.681Z,5.33
2024-04-22T16:43:21.028Z,5.29
2024-04-22T16:45:48.990Z,5.24
2024-04-22T16:48:18.388Z,5.19
2024-04-22T16:50:46.641Z,5.14
2024-04-22T16:53:14.135Z,5.10
2024-04-22T16:55:48.053Z,5.06
2024-04-22T16:58:15.829Z,5.02
2024-04-22T17:00:43.295Z,4.98
2024-04-22T17:03:10.752Z,4.94
2024-04-22T17:05:38.210Z,4.92
2024-04-22T17:08:05.873Z,4.88
2024-04-22T17:10:33.325Z,4.84
2024-04-22T17:13:01.409Z,4.78
2024-04-22T17:15:28.983Z,4.73
2024-04-22T17:17:56.960Z,4.70
2024-04-22T17:20:24.470Z,4.67
2024-04-22T17:22:52.165Z,4.63
2024-04-22T17:25:19.852Z,4.61
2024-04-22T17:27:48.626Z,4.57
2024-04-22T17:30:16.113Z,4.54
2024-04-22T17:32:43.703Z,4.51
2024-04-22T17:35:11.152Z,4.48
2024-04-22T17:37:38.701Z,4.47
2024-04-22T17:40:06.869Z,4.45
2024-04-22T17:42:34.368Z,4.42
2024-04-22T17:45:01.920Z,4.40
2024-04-22T17:47:29.413Z,4.38
2024-04-22T17:49:57.931Z,4.36
2024-04-22T17:52:26.145Z,4.32
2024-04-22T17:54:53.620Z,4.29
2024-04-22T17:57:22.453Z,4.27
2024-04-22T17:59:49.938Z,4.26
2024-04-22T18:02:17.514Z,4.23
2024-04-22T18:04:45.086Z,4.21
2024-04-22T18:07:12.667Z,4.17
2024-04-22T18:09:43.222Z,4.14
2024-04-22T18:12:10.900Z,4.11
2024-04-22T18:14:38.282Z,4.07
2024-04-22T18:17:05.866Z,4.05
2024-04-22T18:19:34.003Z,4.02
2024-04-22T18:22:07.629Z,3.99
2024-04-22T18:24:41.174Z,3.96
2024-04-22T18:27:08.641Z,3.95
2024-04-22T18:29:36.069Z,3.93
2024-04-22T18:32:03.670Z,3.92
2024-04-22T18:34:32.423Z,3.91
2024-04-22T18:36:59.857Z,3.89
2024-04-22T18:39:27.466Z,3.87
2024-04-22T18:41:54.906Z,3.86
2024-04-22T18:44:24.883Z,3.84
2024-04-22T18:46:52.959Z,3.83
2024-04-22T18:49:20.560Z,3.82
2024-04-22T18:51:48.040Z,3.81
2024-04-22T18:54:16.161Z,3.80
2024-04-22T18:56:43.589Z,3.79
2024-04-22T18:59:10.997Z,3.79
2024-04-22T19:01:38.591Z,3.78
2024-04-22T19:04:06.227Z,3.77
2024-04-22T19:06:33.799Z,3.76
2024-04-22T19:09:01.416Z,3.75
2024-04-22T19:11:29.347Z,3.73
2024-04-22T19:13:56.839Z,3.72
2024-04-22T19:16:24.301Z,3.72
2024-04-22T19:18:53.312Z,3.71
2024-04-22T19:21:20.745Z,3.70
2024-04-22T19:23:53.092Z,3.69
2024-04-22T19:26:20.635Z,3.69
2024-04-22T19:28:48.151Z,3.68
2024-04-22T19:31:15.966Z,3.67
2024-04-22T19:33:43.436Z,3.67
2024-04-22T19:36:11.055Z,3.65
2024-04-22T19:38:38.549Z,3.65
2024-04-22T19:41:06.000Z,3.64
2024-04-22T19:43:33.612Z,3.63
2024-04-22T19:46:01.187Z,3.62
2024-04-22T19:48:28.805Z,3.61
2024-04-22T19:50:56.257Z,3.61
2024-04-22T19:53:23.995Z,3.60
2024-04-22T19:55:51.602Z,3.59
2024-04-22T19:58:20.630Z,3.58
2024-04-22T20:00:48.334Z,3.58
2024-04-22T20:03:15.920Z,3.58
2024-04-22T20:05:45.311Z,3.57
2024-04-22T20:08:13.603Z,3.56
2024-04-22T20:10:41.710Z,3.56
2024-04-22T20:13:10.735Z,3.56
2024-04-22T20:16:04.288Z,3.55
2024-04-22T20:18:42.261Z,3.55
2024-04-22T20:21:09.885Z,3.55
2024-04-22T20:23:37.297Z,3.54
2024-04-22T20:26:05.283Z,3.53
2024-04-22T20:28:33.255Z,3.53
2024-04-22T20:31:02.213Z,3.52
2024-04-22T20:33:29.769Z,3.50
2024-04-22T20:35:57.496Z,3.50
2024-04-22T20:38:25.092Z,3.48
2024-04-22T20:41:00.290Z,3.47
2024-04-22T20:43:30.154Z,3.47
2024-04-22T20:46:01.661Z,3.46
2024-04-22T20:48:37.549Z,3.45
2024-04-22T20:51:06.132Z,3.44
2024-04-22T20:53:34.430Z,3.43
2024-04-22T20:56:03.540Z,3.42
2024-04-22T20:58:32.787Z,3.42
2024-04-22T21:01:02.355Z,3.42
2024-04-22T21:03:30.358Z,3.41
2024-04-22T21:05:59.673Z,3.40
2024-04-22T21:08:28.473Z,3.39
2024-04-22T21:10:59.551Z,3.38
2024-04-22T21:13:27.209Z,3.37
2024-04-22T21:15:54.884Z,3.35
2024-04-22T21:18:22.596Z,3.34
2024-04-22T21:20:50.272Z,3.33
2024-04-22T21:23:17.816Z,3.30
2024-04-22T21:25:45.374Z,3.29
2024-04-22T21:28:13.007Z,3.27
2024-04-22T21:30:40.433Z,3.26
2024-04-22T21:35:38.402Z,3.24
2024-04-22T21:38:05.929Z,3.24
2024-04-22T21:40:33.473Z,3.22
2024-04-22T21:43:00.977Z,3.21
2024-04-22T21:45:28.404Z,3.20
2024-04-22T21:47:55.850Z,3.19
2024-04-22T21:50:23.384Z,3.19
2024-04-22T21:52:50.949Z,3.18
2024-04-22T21:55:23.953Z,3.18
2024-04-22T21:58:29.831Z,3.17
2024-04-22T22:01:35.091Z,3.17
2024-04-22T22:04:40.180Z,3.16
2024-04-22T22:07:20.713Z,3.15
2024-04-22T22:09:49.364Z,3.14
2024-04-22T22:12:20.550Z,3.13
2024-04-22T22:14:50.395Z,3.12
2024-04-22T22:17:21.001Z,3.11
2024-04-22T22:19:50.231Z,3.10
2024-04-22T22:22:18.252Z,3.10
2024-04-22T22:24:46.222Z,3.09
2024-04-22T22:27:15.307Z,3.08
2024-04-22T22:29:43.275Z,3.08
2024-04-22T22:32:11.123Z,3.08
2024-04-22T22:34:38.703Z,3.08
2024-04-22T22:37:07.574Z,3.07
2024-04-22T22:39:35.314Z,3.08
2024-04-22T22:42:02.931Z,3.07
2024-04-22T22:44:30.383Z,3.05
2024-04-22T22:47:02.391Z,3.04
2024-04-22T22:49:30.273Z,3.04
2024-04-22T22:51:57.736Z,3.04
2024-04-22T22:54:25.253Z,3.03
2024-04-22T22:56:59.816Z,3.03
2024-04-22T22:59:28.479Z,3.04
2024-04-22T23:01:57.800Z,3.04
2024-04-22T23:04:25.438Z,3.05
2024-04-22T23:06:53.321Z,3.04
2024-04-22T23:09:20.744Z,3.05
2024-04-22T23:11:48.203Z,3.04
2024-04-22T23:14:15.726Z,3.03
2024-04-22T23:16:49.212Z,3.04
2024-04-22T23:19:16.733Z,3.04
2024-04-22T23:21:44.182Z,3.03
2024-04-22T23:24:11.719Z,3.03
2024-04-22T23:26:51.797Z,3.03
2024-04-22T23:29:19.265Z,3.02
2024-04-22T23:31:46.770Z,3.02
2024-04-22T23:34:14.247Z,3.01
2024-04-22T23:36:48.954Z,3.00
2024-04-22T23:39:17.516Z,3.00
2024-04-22T23:41:45.062Z,3.00
2024-04-22T23:44:13.122Z,2.99
2024-04-22T23:46:53.632Z,2.98
2024-04-22T23:49:22.064Z,2.97
2024-04-22T23:51:49.676Z,2.97
2024-04-22T23:54:17.273Z,2.96
2024-04-22T23:56:44.981Z,2.95
2024-04-22T23:59:12.896Z,2.94
